WXM80 ListenWXM80 Stop

You find our weather info also at:

UK Metoffice

WeatherCloud

Weather Underground

Northeastern Weather Network

AWEKAS

Citizen Weather Observer Program (CWOP)

HAMweather, WeatherForYou, PWS Weather


Weather Underground History page Text

Daily Summary for June 13, 2017 Units:  Both    English   Metric
« Previous Day
Next Day »
Daily Weekly Monthly Yearly Custom
  High: Low: Average:
Temperature: 100.0 °F /  37.8 °C 74.7 °F /  23.7 °C 85.9 °F /  29.9 °C
Dew Point: 73.1 °F /  22.8 °C 64.6 °F /  18.1 °C 68.9 °F /  20.5 °C
Humidity: 78 % 36 % 59 %
Wind Speed: 7.8 mph /  12.6 km/h - 1.8 mph /  2.9 km/h
Wind Gust: 11.5 mph /  18.5 km/h - -
Wind:- - WSW
Pressure: 29.89 in /  1012.1 hPa 29.75 in /  1007.3 hPa -
Precipitation: 0.00 in /  0 mm    
Historical Graphs
 
 
Tabular Data for June 13, 2017
Time Temperature Dew Point Pressure Wind Wind Speed Wind Gust Humidity Rainfall Rate (Hourly)
00:01 77.6 °F /  25.3 °C 64.9 °F /  18.3 °C 29.88 in /  1011.7 hPa Calm   1.0 mph /  1.6 km/h 65 % 0.00 in /  0 mm
00:06 77.6 °F /  25.3 °C 64.9 °F /  18.3 °C 29.88 in /  1011.7 hPa Calm     65 % 0.00 in /  0 mm
00:11 77.5 °F /  25.3 °C 64.8 °F /  18.2 °C 29.88 in /  1011.7 hPa Calm     65 % 0.00 in /  0 mm
00:16 77.5 °F /  25.3 °C 64.8 °F /  18.2 °C 29.88 in /  1011.7 hPa Calm   1.2 mph /  1.9 km/h 65 % 0.00 in /  0 mm
00:21 77.4 °F /  25.2 °C 64.7 °F /  18.2 °C 29.88 in /  1011.7 hPa SW 0.1 mph /  0.2 km/h 1.2 mph /  1.9 km/h 65 % 0.00 in /  0 mm
00:26 77.4 °F /  25.2 °C 64.7 °F /  18.2 °C 29.88 in /  1011.7 hPa SW 0.4 mph /  0.6 km/h 2.3 mph /  3.7 km/h 65 % 0.00 in /  0 mm
00:31 77.4 °F /  25.2 °C 64.7 °F /  18.2 °C 29.88 in /  1011.7 hPa SW 0.5 mph /  0.8 km/h 2.3 mph /  3.7 km/h 65 % 0.00 in /  0 mm
00:36 77.3 °F /  25.2 °C 64.6 °F /  18.1 °C 29.88 in /  1011.7 hPa Calm   1.2 mph /  1.9 km/h 65 % 0.00 in /  0 mm
00:41 77.3 °F /  25.2 °C 64.6 °F /  18.1 °C 29.88 in /  1011.7 hPa WSW 0.7 mph /  1.1 km/h 3.0 mph /  4.8 km/h 65 % 0.00 in /  0 mm
00:46 77.3 °F /  25.2 °C 65.1 °F /  18.4 °C 29.88 in /  1011.7 hPa WSW 0.7 mph /  1.1 km/h 2.3 mph /  3.7 km/h 66 % 0.00 in /  0 mm
00:51 77.4 °F /  25.2 °C 65.1 °F /  18.4 °C 29.88 in /  1011.7 hPa SW 1.7 mph /  2.7 km/h 3.5 mph /  5.6 km/h 66 % 0.00 in /  0 mm
00:54 77.4 °F /  25.2 °C 65.1 °F /  18.4 °C 29.88 in /  1011.7 hPa SW 0.4 mph /  0.6 km/h 1.2 mph /  1.9 km/h 66 % 0.00 in /  0 mm
00:59 77.4 °F /  25.2 °C 65.1 °F /  18.4 °C 29.88 in /  1011.7 hPa SW 0.2 mph /  0.3 km/h 1.2 mph /  1.9 km/h 66 % 0.00 in /  0 mm
01:04 77.4 °F /  25.2 °C 65.1 °F /  18.4 °C 29.88 in /  1011.7 hPa SW 0.5 mph /  0.8 km/h 2.3 mph /  3.7 km/h 66 % 0.00 in /  0 mm
01:09 77.3 °F /  25.2 °C 65.5 °F /  18.6 °C 29.88 in /  1011.7 hPa SW 0.7 mph /  1.1 km/h 2.3 mph /  3.7 km/h 67 % 0.00 in /  0 mm
01:14 77.3 °F /  25.2 °C 65.5 °F /  18.6 °C 29.88 in /  1011.7 hPa SW 0.6 mph /  1 km/h 2.3 mph /  3.7 km/h 67 % 0.00 in /  0 mm
01:19 77.2 °F /  25.1 °C 65.4 °F /  18.6 °C 29.88 in /  1011.7 hPa SW 0.3 mph /  0.5 km/h 1.2 mph /  1.9 km/h 67 % 0.00 in /  0 mm
01:24 77.1 °F /  25.1 °C 65.3 °F /  18.5 °C 29.88 in /  1011.7 hPa SW 0.9 mph /  1.4 km/h 1.2 mph /  1.9 km/h 67 % 0.00 in /  0 mm
01:29 77.0 °F /  25 °C 65.2 °F /  18.4 °C 29.88 in /  1011.7 hPa SW 0.5 mph /  0.8 km/h 1.2 mph /  1.9 km/h 67 % 0.00 in /  0 mm
01:34 76.9 °F /  24.9 °C 65.1 °F /  18.4 °C 29.88 in /  1011.7 hPa SW 0.8 mph /  1.3 km/h 2.3 mph /  3.7 km/h 67 % 0.00 in /  0 mm
01:39 76.8 °F /  24.9 °C 65.0 °F /  18.3 °C 29.88 in /  1011.7 hPa SW 0.2 mph /  0.3 km/h 3.5 mph /  5.6 km/h 67 % 0.00 in /  0 mm
01:44 76.7 °F /  24.8 °C 64.9 °F /  18.3 °C 29.88 in /  1011.7 hPa WSW 1.0 mph /  1.6 km/h 3.5 mph /  5.6 km/h 67 % 0.00 in /  0 mm
01:49 76.6 °F /  24.8 °C 65.2 °F /  18.4 °C 29.88 in /  1011.7 hPa WSW 1.5 mph /  2.4 km/h 3.5 mph /  5.6 km/h 68 % 0.00 in /  0 mm
01:54 76.5 °F /  24.7 °C 65.1 °F /  18.4 °C 29.88 in /  1011.7 hPa WSW 0.5 mph /  0.8 km/h 2.0 mph /  3.2 km/h 68 % 0.00 in /  0 mm
01:59 76.5 °F /  24.7 °C 65.1 °F /  18.4 °C 29.88 in /  1011.7 hPa WSW 0.2 mph /  0.3 km/h 1.2 mph /  1.9 km/h 68 % 0.00 in /  0 mm
02:04 76.4 °F /  24.7 °C 65.1 °F /  18.4 °C 29.88 in /  1011.7 hPa WSW 1.0 mph /  1.6 km/h 3.5 mph /  5.6 km/h 68 % 0.00 in /  0 mm
02:09 76.5 °F /  24.7 °C 65.1 °F /  18.4 °C 29.88 in /  1011.7 hPa WSW 0.1 mph /  0.2 km/h 1.2 mph /  1.9 km/h 68 % 0.00 in /  0 mm
02:15 76.5 °F /  24.7 °C 65.1 °F /  18.4 °C 29.89 in /  1012.1 hPa WSW 0.3 mph /  0.5 km/h 1.2 mph /  1.9 km/h 68 % 0.00 in /  0 mm
02:20 76.5 °F /  24.7 °C 65.1 °F /  18.4 °C 29.88 in /  1011.7 hPa Calm   1.2 mph /  1.9 km/h 68 % 0.00 in /  0 mm
02:25 76.5 °F /  24.7 °C 65.1 °F /  18.4 °C 29.88 in /  1011.7 hPa Calm   1.2 mph /  1.9 km/h 68 % 0.00 in /  0 mm
02:30 76.5 °F /  24.7 °C 65.1 °F /  18.4 °C 29.88 in /  1011.7 hPa WSW 0.1 mph /  0.2 km/h 1.2 mph /  1.9 km/h 68 % 0.00 in /  0 mm
02:35 76.5 °F /  24.7 °C 65.1 °F /  18.4 °C 29.88 in /  1011.7 hPa Calm     68 % 0.00 in /  0 mm
02:40 76.4 °F /  24.7 °C 65.1 °F /  18.4 °C 29.88 in /  1011.7 hPa Calm     68 % 0.00 in /  0 mm
02:45 76.4 °F /  24.7 °C 65.1 °F /  18.4 °C 29.88 in /  1011.7 hPa Calm     68 % 0.00 in /  0 mm
02:50 76.3 °F /  24.6 °C 65.0 °F /  18.3 °C 29.88 in /  1011.7 hPa WSW 0.1 mph /  0.2 km/h 1.2 mph /  1.9 km/h 68 % 0.00 in /  0 mm
02:55 76.3 °F /  24.6 °C 65.0 °F /  18.3 °C 29.88 in /  1011.7 hPa Calm   1.2 mph /  1.9 km/h 68 % 0.00 in /  0 mm
03:00 76.2 °F /  24.6 °C 65.3 °F /  18.5 °C 29.88 in /  1011.7 hPa SW 1.3 mph /  2.1 km/h 3.5 mph /  5.6 km/h 69 % 0.00 in /  0 mm
03:02 76.2 °F /  24.6 °C 65.3 °F /  18.5 °C 29.88 in /  1011.7 hPa SW 0.2 mph /  0.3 km/h 2.3 mph /  3.7 km/h 69 % 0.00 in /  0 mm
03:07 76.2 °F /  24.6 °C 64.9 °F /  18.3 °C 29.89 in /  1012.1 hPa Calm   1.2 mph /  1.9 km/h 68 % 0.00 in /  0 mm
03:12 76.2 °F /  24.6 °C 65.3 °F /  18.5 °C 29.89 in /  1012.1 hPa SW 0.5 mph /  0.8 km/h 2.3 mph /  3.7 km/h 69 % 0.00 in /  0 mm
03:17 76.2 °F /  24.6 °C 65.3 °F /  18.5 °C 29.89 in /  1012.1 hPa SW 0.6 mph /  1 km/h 2.3 mph /  3.7 km/h 69 % 0.00 in /  0 mm
03:22 76.1 °F /  24.5 °C 65.2 °F /  18.4 °C 29.89 in /  1012.1 hPa SW 0.1 mph /  0.2 km/h 2.3 mph /  3.7 km/h 69 % 0.00 in /  0 mm
03:27 76.1 °F /  24.5 °C 65.2 °F /  18.4 °C 29.89 in /  1012.1 hPa SW 0.5 mph /  0.8 km/h 2.3 mph /  3.7 km/h 69 % 0.00 in /  0 mm
03:32 76.0 °F /  24.4 °C 65.1 °F /  18.4 °C 29.89 in /  1012.1 hPa SW 0.7 mph /  1.1 km/h 2.3 mph /  3.7 km/h 69 % 0.00 in /  0 mm
03:37 76.0 °F /  24.4 °C 65.1 °F /  18.4 °C 29.89 in /  1012.1 hPa SW 0.4 mph /  0.6 km/h 1.2 mph /  1.9 km/h 69 % 0.00 in /  0 mm
03:42 75.9 °F /  24.4 °C 65.0 °F /  18.3 °C 29.89 in /  1012.1 hPa SW 0.7 mph /  1.1 km/h 2.3 mph /  3.7 km/h 69 % 0.00 in /  0 mm
03:47 75.8 °F /  24.3 °C 64.9 °F /  18.3 °C 29.89 in /  1012.1 hPa SW 0.3 mph /  0.5 km/h 1.2 mph /  1.9 km/h 69 % 0.00 in /  0 mm
03:52 75.8 °F /  24.3 °C 64.9 °F /  18.3 °C 29.89 in /  1012.1 hPa SW 0.3 mph /  0.5 km/h 2.3 mph /  3.7 km/h 69 % 0.00 in /  0 mm
03:57 75.7 °F /  24.3 °C 65.2 °F /  18.4 °C 29.88 in /  1011.7 hPa Calm   1.2 mph /  1.9 km/h 70 % 0.00 in /  0 mm
04:02 75.7 °F /  24.3 °C 65.2 °F /  18.4 °C 29.88 in /  1011.7 hPa WSW 2.2 mph /  3.5 km/h 3.5 mph /  5.6 km/h 70 % 0.00 in /  0 mm
04:07 75.6 °F /  24.2 °C 65.1 °F /  18.4 °C 29.88 in /  1011.7 hPa WSW 1.1 mph /  1.8 km/h 2.3 mph /  3.7 km/h 70 % 0.00 in /  0 mm
04:12 75.6 °F /  24.2 °C 65.1 °F /  18.4 °C 29.88 in /  1011.7 hPa WSW 2.6 mph /  4.2 km/h 3.5 mph /  5.6 km/h 70 % 0.00 in /  0 mm
04:17 75.6 °F /  24.2 °C 65.1 °F /  18.4 °C 29.88 in /  1011.7 hPa WSW 1.3 mph /  2.1 km/h 2.0 mph /  3.2 km/h 70 % 0.00 in /  0 mm
04:23 75.6 °F /  24.2 °C 65.5 °F /  18.6 °C 29.88 in /  1011.7 hPa SW 0.6 mph /  1 km/h 4.6 mph /  7.4 km/h 71 % 0.00 in /  0 mm
04:28 75.5 °F /  24.2 °C 65.0 °F /  18.3 °C 29.88 in /  1011.7 hPa SW 2.1 mph /  3.4 km/h 3.5 mph /  5.6 km/h 70 % 0.00 in /  0 mm
04:33 75.5 °F /  24.2 °C 65.0 °F /  18.3 °C 29.88 in /  1011.7 hPa West 1.1 mph /  1.8 km/h 3.0 mph /  4.8 km/h 70 % 0.00 in /  0 mm
04:38 75.6 °F /  24.2 °C 65.5 °F /  18.6 °C 29.88 in /  1011.7 hPa SW 3.7 mph /  6 km/h 6.9 mph /  11.1 km/h 71 % 0.00 in /  0 mm
04:43 75.5 °F /  24.2 °C 65.4 °F /  18.6 °C 29.88 in /  1011.7 hPa WSW 1.7 mph /  2.7 km/h 3.5 mph /  5.6 km/h 71 % 0.00 in /  0 mm
04:48 75.5 °F /  24.2 °C 65.4 °F /  18.6 °C 29.88 in /  1011.7 hPa WSW 2.1 mph /  3.4 km/h 5.8 mph /  9.3 km/h 71 % 0.00 in /  0 mm
04:53 75.5 °F /  24.2 °C 65.8 °F /  18.8 °C 29.88 in /  1011.7 hPa WSW 1.5 mph /  2.4 km/h 3.5 mph /  5.6 km/h 72 % 0.00 in /  0 mm
04:58 75.4 °F /  24.1 °C 65.7 °F /  18.7 °C 29.88 in /  1011.7 hPa WSW 1.8 mph /  2.9 km/h 5.0 mph /  8 km/h 72 % 0.00 in /  0 mm
05:03 75.3 °F /  24.1 °C 65.6 °F /  18.7 °C 29.88 in /  1011.7 hPa WSW 2.6 mph /  4.2 km/h 3.5 mph /  5.6 km/h 72 % 0.00 in /  0 mm
05:08 75.3 °F /  24.1 °C 65.6 °F /  18.7 °C 29.88 in /  1011.7 hPa SW 1.2 mph /  1.9 km/h 3.5 mph /  5.6 km/h 72 % 0.00 in /  0 mm
05:13 75.3 °F /  24.1 °C 65.6 °F /  18.7 °C 29.89 in /  1012.1 hPa SSW 2.0 mph /  3.2 km/h 3.5 mph /  5.6 km/h 72 % 0.00 in /  0 mm
05:20 75.2 °F /  24 °C 65.6 °F /  18.7 °C 29.89 in /  1012.1 hPa SSW 1.5 mph /  2.4 km/h 3.5 mph /  5.6 km/h 72 % 0.00 in /  0 mm
05:25 75.1 °F /  23.9 °C 65.9 °F /  18.8 °C 29.89 in /  1012.1 hPa SSW 1.9 mph /  3.1 km/h 3.5 mph /  5.6 km/h 73 % 0.00 in /  0 mm
05:30 75.0 °F /  23.9 °C 65.8 °F /  18.8 °C 29.88 in /  1011.7 hPa SW 1.7 mph /  2.7 km/h 4.6 mph /  7.4 km/h 73 % 0.00 in /  0 mm
05:35 74.9 °F /  23.8 °C 65.7 °F /  18.7 °C 29.88 in /  1011.7 hPa WSW 2.0 mph /  3.2 km/h 6.9 mph /  11.1 km/h 73 % 0.00 in /  0 mm
05:40 74.9 °F /  23.8 °C 65.7 °F /  18.7 °C 29.88 in /  1011.7 hPa SW 2.5 mph /  4 km/h 4.0 mph /  6.4 km/h 73 % 0.00 in /  0 mm
05:45 74.8 °F /  23.8 °C 65.6 °F /  18.7 °C 29.88 in /  1011.7 hPa SW 2.4 mph /  3.9 km/h 3.5 mph /  5.6 km/h 73 % 0.00 in /  0 mm
05:50 74.8 °F /  23.8 °C 65.6 °F /  18.7 °C 29.88 in /  1011.7 hPa SW 1.3 mph /  2.1 km/h 3.5 mph /  5.6 km/h 73 % 0.00 in /  0 mm
05:55 74.7 °F /  23.7 °C 65.5 °F /  18.6 °C 29.89 in /  1012.1 hPa WSW 3.6 mph /  5.8 km/h 5.8 mph /  9.3 km/h 73 % 0.00 in /  0 mm
06:00 74.7 °F /  23.7 °C 65.5 °F /  18.6 °C 29.89 in /  1012.1 hPa WSW 1.8 mph /  2.9 km/h 4.0 mph /  6.4 km/h 73 % 0.00 in /  0 mm
06:05 74.8 °F /  23.8 °C 66.0 °F /  18.9 °C 29.89 in /  1012.1 hPa SW 2.2 mph /  3.5 km/h 5.8 mph /  9.3 km/h 74 % 0.00 in /  0 mm
06:10 74.8 °F /  23.8 °C 66.0 °F /  18.9 °C 29.89 in /  1012.1 hPa SW 3.4 mph /  5.5 km/h 5.0 mph /  8 km/h 74 % 0.00 in /  0 mm
06:15 74.8 °F /  23.8 °C 66.0 °F /  18.9 °C 29.89 in /  1012.1 hPa SSW 2.6 mph /  4.2 km/h 3.5 mph /  5.6 km/h 74 % 0.00 in /  0 mm
06:20 74.9 °F /  23.8 °C 66.1 °F /  18.9 °C 29.89 in /  1012.1 hPa SW 2.3 mph /  3.7 km/h 3.5 mph /  5.6 km/h 74 % 0.00 in /  0 mm
06:25 74.9 °F /  23.8 °C 66.1 °F /  18.9 °C 29.89 in /  1012.1 hPa SW 1.8 mph /  2.9 km/h 3.5 mph /  5.6 km/h 74 % 0.00 in /  0 mm
06:30 75.0 °F /  23.9 °C 66.1 °F /  18.9 °C 29.89 in /  1012.1 hPa SW 1.3 mph /  2.1 km/h 3.5 mph /  5.6 km/h 74 % 0.00 in /  0 mm
06:35 75.1 °F /  23.9 °C 66.2 °F /  19 °C 29.89 in /  1012.1 hPa West 0.7 mph /  1.1 km/h 3.5 mph /  5.6 km/h 74 % 0.00 in /  0 mm
06:40 75.2 °F /  24 °C 66.3 °F /  19.1 °C 29.89 in /  1012.1 hPa WSW 2.2 mph /  3.5 km/h 4.0 mph /  6.4 km/h 74 % 0.00 in /  0 mm
06:45 75.4 °F /  24.1 °C 66.5 °F /  19.2 °C 29.89 in /  1012.1 hPa SW 3.2 mph /  5.1 km/h 3.5 mph /  5.6 km/h 74 % 0.00 in /  0 mm
06:50 75.6 °F /  24.2 °C 66.7 °F /  19.3 °C 29.89 in /  1012.1 hPa WSW 2.4 mph /  3.9 km/h 3.5 mph /  5.6 km/h 74 % 0.00 in /  0 mm
06:55 75.9 °F /  24.4 °C 67.0 °F /  19.4 °C 29.89 in /  1012.1 hPa West 0.4 mph /  0.6 km/h 2.3 mph /  3.7 km/h 74 % 0.00 in /  0 mm
07:00 76.2 °F /  24.6 °C 67.3 °F /  19.6 °C 29.89 in /  1012.1 hPa WSW 2.9 mph /  4.7 km/h 5.8 mph /  9.3 km/h 74 % 0.00 in /  0 mm
07:06 76.5 °F /  24.7 °C 67.2 °F /  19.6 °C 29.89 in /  1012.1 hPa SW 3.3 mph /  5.3 km/h 4.6 mph /  7.4 km/h 73 % 0.00 in /  0 mm
07:11 76.9 °F /  24.9 °C 67.5 °F /  19.7 °C 29.89 in /  1012.1 hPa SW 1.0 mph /  1.6 km/h 3.0 mph /  4.8 km/h 73 % 0.00 in /  0 mm
07:21 77.6 °F /  25.3 °C 67.5 °F /  19.7 °C 29.89 in /  1012.1 hPa SW 2.0 mph /  3.2 km/h 3.0 mph /  4.8 km/h 71 % 0.00 in /  0 mm
07:31 78.5 °F /  25.8 °C 67.9 °F /  19.9 °C 29.89 in /  1012.1 hPa WNW 0.4 mph /  0.6 km/h 2.3 mph /  3.7 km/h 70 % 0.00 in /  0 mm
07:36 78.8 °F /  26 °C 68.2 °F /  20.1 °C 29.89 in /  1012.1 hPa SSW 2.3 mph /  3.7 km/h 3.5 mph /  5.6 km/h 70 % 0.00 in /  0 mm
07:41 79.1 °F /  26.2 °C 68.1 °F /  20.1 °C 29.89 in /  1012.1 hPa WSW 1.8 mph /  2.9 km/h 3.5 mph /  5.6 km/h 69 % 0.00 in /  0 mm
07:46 79.3 °F /  26.3 °C 68.2 °F /  20.1 °C 29.89 in /  1012.1 hPa SW 4.3 mph /  6.9 km/h 6.0 mph /  9.7 km/h 69 % 0.00 in /  0 mm
07:51 79.4 °F /  26.3 °C 67.9 °F /  19.9 °C 29.89 in /  1012.1 hPa SW 1.9 mph /  3.1 km/h 5.8 mph /  9.3 km/h 68 % 0.00 in /  0 mm
07:56 79.5 °F /  26.4 °C 68.4 °F /  20.2 °C 29.89 in /  1012.1 hPa SW 3.6 mph /  5.8 km/h 6.9 mph /  11.1 km/h 69 % 0.00 in /  0 mm
08:06 79.7 °F /  26.5 °C 68.2 °F /  20.1 °C 29.89 in /  1012.1 hPa WSW 2.8 mph /  4.5 km/h 4.6 mph /  7.4 km/h 68 % 0.00 in /  0 mm
08:11 79.8 °F /  26.6 °C 68.7 °F /  20.4 °C 29.89 in /  1012.1 hPa West 2.3 mph /  3.7 km/h 3.5 mph /  5.6 km/h 69 % 0.00 in /  0 mm
08:16 80.0 °F /  26.7 °C 68.9 °F /  20.5 °C 29.89 in /  1012.1 hPa West 1.3 mph /  2.1 km/h 3.5 mph /  5.6 km/h 69 % 0.00 in /  0 mm
08:21 80.1 °F /  26.7 °C 68.6 °F /  20.3 °C 29.89 in /  1012.1 hPa SSW 2.1 mph /  3.4 km/h 4.0 mph /  6.4 km/h 68 % 0.00 in /  0 mm
08:26 80.3 °F /  26.8 °C 68.8 °F /  20.4 °C 29.89 in /  1012.1 hPa WSW 4.4 mph /  7.1 km/h 6.9 mph /  11.1 km/h 68 % 0.00 in /  0 mm
08:31 80.4 °F /  26.9 °C 68.4 °F /  20.2 °C 29.89 in /  1012.1 hPa SW 3.2 mph /  5.1 km/h 4.6 mph /  7.4 km/h 67 % 0.00 in /  0 mm
08:36 80.7 °F /  27.1 °C 68.7 °F /  20.4 °C 29.89 in /  1012.1 hPa SSW 4.4 mph /  7.1 km/h 6.9 mph /  11.1 km/h 67 % 0.00 in /  0 mm
08:41 80.9 °F /  27.2 °C 68.9 °F /  20.5 °C 29.89 in /  1012.1 hPa West 4.3 mph /  6.9 km/h 7.0 mph /  11.3 km/h 67 % 0.00 in /  0 mm
08:46 81.1 °F /  27.3 °C 68.7 °F /  20.4 °C 29.89 in /  1012.1 hPa SW 2.5 mph /  4 km/h 4.6 mph /  7.4 km/h 66 % 0.00 in /  0 mm
08:51 81.4 °F /  27.4 °C 68.9 °F /  20.5 °C 29.89 in /  1012.1 hPa WSW 2.1 mph /  3.4 km/h 5.8 mph /  9.3 km/h 66 % 0.00 in /  0 mm
08:56 81.6 °F /  27.6 °C 69.1 °F /  20.6 °C 29.89 in /  1012.1 hPa West 3.5 mph /  5.6 km/h 4.6 mph /  7.4 km/h 66 % 0.00 in /  0 mm
09:01 81.8 °F /  27.7 °C 68.9 °F /  20.5 °C 29.89 in /  1012.1 hPa WSW 3.8 mph /  6.1 km/h 8.1 mph /  13 km/h 65 % 0.00 in /  0 mm
09:06 82.0 °F /  27.8 °C 69.1 °F /  20.6 °C 29.89 in /  1012.1 hPa WSW 4.0 mph /  6.4 km/h 7.0 mph /  11.3 km/h 65 % 0.00 in /  0 mm
09:11 82.1 °F /  27.8 °C 69.2 °F /  20.7 °C 29.89 in /  1012.1 hPa SSW 2.6 mph /  4.2 km/h 5.8 mph /  9.3 km/h 65 % 0.00 in /  0 mm
09:16 82.3 °F /  27.9 °C 69.4 °F /  20.8 °C 29.88 in /  1011.7 hPa SW 2.4 mph /  3.9 km/h 3.5 mph /  5.6 km/h 65 % 0.00 in /  0 mm
09:21 82.4 °F /  28 °C 69.4 °F /  20.8 °C 29.89 in /  1012.1 hPa SW 2.7 mph /  4.3 km/h 5.0 mph /  8 km/h 65 % 0.00 in /  0 mm
09:26 82.5 °F /  28.1 °C 69.5 °F /  20.8 °C 29.88 in /  1011.7 hPa WSW 2.9 mph /  4.7 km/h 5.0 mph /  8 km/h 65 % 0.00 in /  0 mm
09:31 82.7 °F /  28.2 °C 69.3 °F /  20.7 °C 29.88 in /  1011.7 hPa West 5.1 mph /  8.2 km/h 6.9 mph /  11.1 km/h 64 % 0.00 in /  0 mm
09:36 83.0 °F /  28.3 °C 69.1 °F /  20.6 °C 29.88 in /  1011.7 hPa SW 3.1 mph /  5 km/h 6.0 mph /  9.7 km/h 63 % 0.00 in /  0 mm
09:41 83.4 °F /  28.6 °C 69.9 °F /  21.1 °C 29.88 in /  1011.7 hPa WSW 3.7 mph /  6 km/h 5.8 mph /  9.3 km/h 64 % 0.00 in /  0 mm
09:46 83.9 °F /  28.8 °C 70.0 °F /  21.1 °C 29.88 in /  1011.7 hPa SW 3.8 mph /  6.1 km/h 6.0 mph /  9.7 km/h 63 % 0.00 in /  0 mm
09:51 84.5 °F /  29.2 °C 70.5 °F /  21.4 °C 29.88 in /  1011.7 hPa WSW 2.5 mph /  4 km/h 4.0 mph /  6.4 km/h 63 % 0.00 in /  0 mm
09:56 85.1 °F /  29.5 °C 71.5 °F /  21.9 °C 29.88 in /  1011.7 hPa West 1.2 mph /  1.9 km/h 3.0 mph /  4.8 km/h 64 % 0.00 in /  0 mm
10:01 85.9 °F /  29.9 °C 70.9 °F /  21.6 °C 29.88 in /  1011.7 hPa NW 3.4 mph /  5.5 km/h 7.0 mph /  11.3 km/h 61 % 0.00 in /  0 mm
10:06 86.7 °F /  30.4 °C 71.2 °F /  21.8 °C 29.88 in /  1011.7 hPa WNW 3.9 mph /  6.3 km/h 6.9 mph /  11.1 km/h 60 % 0.00 in /  0 mm
10:11 87.4 °F /  30.8 °C 72.3 °F /  22.4 °C 29.88 in /  1011.7 hPa SW 2.8 mph /  4.5 km/h 8.0 mph /  12.9 km/h 61 % 0.00 in /  0 mm
10:16 88.0 °F /  31.1 °C 70.9 °F /  21.6 °C 29.87 in /  1011.4 hPa WSW 3.4 mph /  5.5 km/h 6.9 mph /  11.1 km/h 57 % 0.00 in /  0 mm
10:21 88.6 °F /  31.4 °C 71.9 °F /  22.2 °C 29.87 in /  1011.4 hPa West 3.6 mph /  5.8 km/h 5.0 mph /  8 km/h 58 % 0.00 in /  0 mm
10:25 89.0 °F /  31.7 °C 70.7 °F /  21.5 °C 29.87 in /  1011.4 hPa West 3.4 mph /  5.5 km/h 5.8 mph /  9.3 km/h 55 % 0.00 in /  0 mm
10:30 89.5 °F /  31.9 °C 70.7 °F /  21.5 °C 29.87 in /  1011.4 hPa WSW 3.7 mph /  6 km/h 5.8 mph /  9.3 km/h 54 % 0.00 in /  0 mm
10:35 90.1 °F /  32.3 °C 71.2 °F /  21.8 °C 29.87 in /  1011.4 hPa SW 4.9 mph /  7.9 km/h 8.1 mph /  13 km/h 54 % 0.00 in /  0 mm
10:40 90.6 °F /  32.6 °C 71.1 °F /  21.7 °C 29.87 in /  1011.4 hPa WSW 5.0 mph /  8 km/h 7.0 mph /  11.3 km/h 53 % 0.00 in /  0 mm
10:45 91.0 °F /  32.8 °C 70.9 °F /  21.6 °C 29.87 in /  1011.4 hPa West 2.1 mph /  3.4 km/h 4.0 mph /  6.4 km/h 52 % 0.00 in /  0 mm
10:50 91.5 °F /  33.1 °C 73.1 °F /  22.8 °C 29.87 in /  1011.4 hPa SW 4.4 mph /  7.1 km/h 6.9 mph /  11.1 km/h 55 % 0.00 in /  0 mm
10:55 92.0 °F /  33.3 °C 72.4 °F /  22.4 °C 29.87 in /  1011.4 hPa West 1.9 mph /  3.1 km/h 4.6 mph /  7.4 km/h 53 % 0.00 in /  0 mm
11:00 92.6 °F /  33.7 °C 73.0 °F /  22.8 °C 29.86 in /  1011.1 hPa WNW 1.7 mph /  2.7 km/h 3.5 mph /  5.6 km/h 53 % 0.00 in /  0 mm
11:05 93.0 °F /  33.9 °C 71.0 °F /  21.7 °C 29.86 in /  1011.1 hPa WSW 4.3 mph /  6.9 km/h 6.9 mph /  11.1 km/h 49 % 0.00 in /  0 mm
11:10 93.5 °F /  34.2 °C 72.7 °F /  22.6 °C 29.86 in /  1011.1 hPa SW 1.7 mph /  2.7 km/h 3.5 mph /  5.6 km/h 51 % 0.00 in /  0 mm
11:15 93.8 °F /  34.3 °C 72.3 °F /  22.4 °C 29.86 in /  1011.1 hPa SW 1.8 mph /  2.9 km/h 5.8 mph /  9.3 km/h 50 % 0.00 in /  0 mm
11:20 94.1 °F /  34.5 °C 72.6 °F /  22.6 °C 29.86 in /  1011.1 hPa WSW 2.6 mph /  4.2 km/h 4.0 mph /  6.4 km/h 50 % 0.00 in /  0 mm
11:25 94.4 °F /  34.7 °C 72.3 °F /  22.4 °C 29.86 in /  1011.1 hPa SW 1.9 mph /  3.1 km/h 5.0 mph /  8 km/h 49 % 0.00 in /  0 mm
11:30 94.8 °F /  34.9 °C 72.7 °F /  22.6 °C 29.86 in /  1011.1 hPa WSW 2.9 mph /  4.7 km/h 7.0 mph /  11.3 km/h 49 % 0.00 in /  0 mm
11:35 95.1 °F /  35.1 °C 71.7 °F /  22.1 °C 29.86 in /  1011.1 hPa WNW 4.4 mph /  7.1 km/h 7.0 mph /  11.3 km/h 47 % 0.00 in /  0 mm
11:40 95.5 °F /  35.3 °C 71.4 °F /  21.9 °C 29.86 in /  1011.1 hPa SW 3.5 mph /  5.6 km/h 8.1 mph /  13 km/h 46 % 0.00 in /  0 mm
11:45 95.8 °F /  35.4 °C 71.1 °F /  21.7 °C 29.86 in /  1011.1 hPa West 3.6 mph /  5.8 km/h 6.9 mph /  11.1 km/h 45 % 0.00 in /  0 mm
11:50 96.1 °F /  35.6 °C 70.7 °F /  21.5 °C 29.85 in /  1010.7 hPa WSW 7.8 mph /  12.6 km/h 11.5 mph /  18.5 km/h 44 % 0.00 in /  0 mm
11:55 96.4 °F /  35.8 °C 72.9 °F /  22.7 °C 29.86 in /  1011.1 hPa SSW 3.6 mph /  5.8 km/h 11.5 mph /  18.5 km/h 47 % 0.00 in /  0 mm
12:00 96.8 °F /  36 °C 71.3 °F /  21.8 °C 29.85 in /  1010.7 hPa WSW 3.0 mph /  4.8 km/h 5.8 mph /  9.3 km/h 44 % 0.00 in /  0 mm
12:05 97.2 °F /  36.2 °C 72.3 °F /  22.4 °C 29.85 in /  1010.7 hPa SSW 3.2 mph /  5.1 km/h 5.0 mph /  8 km/h 45 % 0.00 in /  0 mm
12:10 97.4 °F /  36.3 °C 71.8 °F /  22.1 °C 29.85 in /  1010.7 hPa West 2.5 mph /  4 km/h 8.1 mph /  13 km/h 44 % 0.00 in /  0 mm
12:15 97.4 °F /  36.3 °C 73.1 °F /  22.8 °C 29.85 in /  1010.7 hPa West 3.7 mph /  6 km/h 9.2 mph /  14.8 km/h 46 % 0.00 in /  0 mm
12:20 97.7 °F /  36.5 °C 71.4 °F /  21.9 °C 29.84 in /  1010.4 hPa SW 3.1 mph /  5 km/h 6.9 mph /  11.1 km/h 43 % 0.00 in /  0 mm
12:25 97.7 °F /  36.5 °C 71.4 °F /  21.9 °C 29.84 in /  1010.4 hPa West 3.4 mph /  5.5 km/h 6.9 mph /  11.1 km/h 43 % 0.00 in /  0 mm
12:31 97.8 °F /  36.6 °C 71.5 °F /  21.9 °C 29.84 in /  1010.4 hPa WSW 3.6 mph /  5.8 km/h 6.9 mph /  11.1 km/h 43 % 0.00 in /  0 mm
12:36 97.9 °F /  36.6 °C 72.9 °F /  22.7 °C 29.84 in /  1010.4 hPa SW 1.8 mph /  2.9 km/h 9.2 mph /  14.8 km/h 45 % 0.00 in /  0 mm
12:41 98.1 °F /  36.7 °C 73.1 °F /  22.8 °C 29.84 in /  1010.4 hPa WSW 5.0 mph /  8 km/h 8.0 mph /  12.9 km/h 45 % 0.00 in /  0 mm
12:46 98.1 °F /  36.7 °C 70.4 °F /  21.3 °C 29.84 in /  1010.4 hPa WSW 3.0 mph /  4.8 km/h 9.0 mph /  14.5 km/h 41 % 0.00 in /  0 mm
12:51 98.3 °F /  36.8 °C 72.6 °F /  22.6 °C 29.83 in /  1010 hPa WSW 3.8 mph /  6.1 km/h 5.8 mph /  9.3 km/h 44 % 0.00 in /  0 mm
12:56 98.5 °F /  36.9 °C 70.7 °F /  21.5 °C 29.83 in /  1010 hPa WSW 4.9 mph /  7.9 km/h 8.1 mph /  13 km/h 41 % 0.00 in /  0 mm
13:01 98.5 °F /  36.9 °C 70.7 °F /  21.5 °C 29.83 in /  1010 hPa SW 2.3 mph /  3.7 km/h 3.5 mph /  5.6 km/h 41 % 0.00 in /  0 mm
13:06 98.5 °F /  36.9 °C 70.0 °F /  21.1 °C 29.83 in /  1010 hPa WNW 4.8 mph /  7.7 km/h 10.4 mph /  16.7 km/h 40 % 0.00 in /  0 mm
13:11 98.5 °F /  36.9 °C 71.4 °F /  21.9 °C 29.83 in /  1010 hPa WSW 5.6 mph /  9 km/h 6.9 mph /  11.1 km/h 42 % 0.00 in /  0 mm
13:16 98.7 °F /  37.1 °C 72.3 °F /  22.4 °C 29.83 in /  1010 hPa WNW 4.0 mph /  6.4 km/h 9.2 mph /  14.8 km/h 43 % 0.00 in /  0 mm
13:21 98.8 °F /  37.1 °C 71.0 °F /  21.7 °C 29.83 in /  1010 hPa West 3.1 mph /  5 km/h 6.9 mph /  11.1 km/h 41 % 0.00 in /  0 mm
13:26 98.9 °F /  37.2 °C 71.8 °F /  22.1 °C 29.83 in /  1010 hPa SW 4.6 mph /  7.4 km/h 6.9 mph /  11.1 km/h 42 % 0.00 in /  0 mm
13:31 98.9 °F /  37.2 °C 71.1 °F /  21.7 °C 29.82 in /  1009.7 hPa SW 5.4 mph /  8.7 km/h 9.2 mph /  14.8 km/h 41 % 0.00 in /  0 mm
13:36 98.9 °F /  37.2 °C 69.6 °F /  20.9 °C 29.82 in /  1009.7 hPa SW 5.3 mph /  8.5 km/h 6.9 mph /  11.1 km/h 39 % 0.00 in /  0 mm
13:41 99.1 °F /  37.3 °C 72.7 °F /  22.6 °C 29.82 in /  1009.7 hPa WSW 1.7 mph /  2.7 km/h 3.5 mph /  5.6 km/h 43 % 0.00 in /  0 mm
13:46 99.2 °F /  37.3 °C 70.6 °F /  21.4 °C 29.82 in /  1009.7 hPa WSW 6.5 mph /  10.5 km/h 8.1 mph /  13 km/h 40 % 0.00 in /  0 mm
13:51 99.2 °F /  37.3 °C 69.9 °F /  21.1 °C 29.82 in /  1009.7 hPa WNW 2.9 mph /  4.7 km/h 5.8 mph /  9.3 km/h 39 % 0.00 in /  0 mm
13:56 99.2 °F /  37.3 °C 70.6 °F /  21.4 °C 29.82 in /  1009.7 hPa WNW 5.6 mph /  9 km/h 8.1 mph /  13 km/h 40 % 0.00 in /  0 mm
14:01 99.2 °F /  37.3 °C 70.6 °F /  21.4 °C 29.82 in /  1009.7 hPa West 5.5 mph /  8.9 km/h 8.1 mph /  13 km/h 40 % 0.00 in /  0 mm
14:04 99.1 °F /  37.3 °C 69.8 °F /  21 °C 29.82 in /  1009.7 hPa NW 1.5 mph /  2.4 km/h 11.5 mph /  18.5 km/h 39 % 0.00 in /  0 mm
14:09 99.1 °F /  37.3 °C 71.3 °F /  21.8 °C 29.81 in /  1009.4 hPa West 3.7 mph /  6 km/h 9.2 mph /  14.8 km/h 41 % 0.00 in /  0 mm
14:14 99.1 °F /  37.3 °C 71.3 °F /  21.8 °C 29.81 in /  1009.4 hPa West 5.0 mph /  8 km/h 8.0 mph /  12.9 km/h 41 % 0.00 in /  0 mm
14:19 99.1 °F /  37.3 °C 72.0 °F /  22.2 °C 29.81 in /  1009.4 hPa WSW 0.9 mph /  1.4 km/h 8.1 mph /  13 km/h 42 % 0.00 in /  0 mm
14:24 99.2 °F /  37.3 °C 69.9 °F /  21.1 °C 29.81 in /  1009.4 hPa SSW 4.1 mph /  6.6 km/h 10.4 mph /  16.7 km/h 39 % 0.00 in /  0 mm
14:29 99.1 °F /  37.3 °C 69.0 °F /  20.6 °C 29.81 in /  1009.4 hPa West 4.0 mph /  6.4 km/h 11.5 mph /  18.5 km/h 38 % 0.00 in /  0 mm
14:34 99.1 °F /  37.3 °C 69.8 °F /  21 °C 29.80 in /  1009 hPa WNW 2.1 mph /  3.4 km/h 5.8 mph /  9.3 km/h 39 % 0.00 in /  0 mm
14:39 99.2 °F /  37.3 °C 69.9 °F /  21.1 °C 29.80 in /  1009 hPa West 4.9 mph /  7.9 km/h 8.1 mph /  13 km/h 39 % 0.00 in /  0 mm
14:44 99.3 °F /  37.4 °C 70.0 °F /  21.1 °C 29.80 in /  1009 hPa SW 4.3 mph /  6.9 km/h 10.4 mph /  16.7 km/h 39 % 0.00 in /  0 mm
14:49 99.4 °F /  37.4 °C 70.8 °F /  21.6 °C 29.80 in /  1009 hPa WSW 2.2 mph /  3.5 km/h 6.9 mph /  11.1 km/h 40 % 0.00 in /  0 mm
14:54 99.2 °F /  37.3 °C 69.1 °F /  20.6 °C 29.80 in /  1009 hPa West 3.8 mph /  6.1 km/h 10.0 mph /  16.1 km/h 38 % 0.00 in /  0 mm
14:59 99.0 °F /  37.2 °C 70.5 °F /  21.4 °C 29.80 in /  1009 hPa WSW 1.8 mph /  2.9 km/h 5.8 mph /  9.3 km/h 40 % 0.00 in /  0 mm
15:04 98.9 °F /  37.2 °C 69.6 °F /  20.9 °C 29.80 in /  1009 hPa SW 0.2 mph /  0.3 km/h 1.2 mph /  1.9 km/h 39 % 0.00 in /  0 mm
15:09 98.6 °F /  37 °C 70.8 °F /  21.6 °C 29.79 in /  1008.7 hPa WNW 0.5 mph /  0.8 km/h 3.5 mph /  5.6 km/h 41 % 0.00 in /  0 mm
15:14 98.5 °F /  36.9 °C 70.0 °F /  21.1 °C 29.79 in /  1008.7 hPa SW 4.8 mph /  7.7 km/h 6.9 mph /  11.1 km/h 40 % 0.00 in /  0 mm
15:19 98.5 °F /  36.9 °C 68.5 °F /  20.3 °C 29.79 in /  1008.7 hPa WSW 4.1 mph /  6.6 km/h 8.1 mph /  13 km/h 38 % 0.00 in /  0 mm
15:24 98.6 °F /  37 °C 68.6 °F /  20.3 °C 29.79 in /  1008.7 hPa WSW 4.6 mph /  7.4 km/h 6.9 mph /  11.1 km/h 38 % 0.00 in /  0 mm
15:29 98.7 °F /  37.1 °C 68.7 °F /  20.4 °C 29.78 in /  1008.4 hPa WSW 1.9 mph /  3.1 km/h 3.5 mph /  5.6 km/h 38 % 0.00 in /  0 mm
15:34 99.0 °F /  37.2 °C 69.7 °F /  20.9 °C 29.78 in /  1008.4 hPa SW 3.2 mph /  5.1 km/h 4.6 mph /  7.4 km/h 39 % 0.00 in /  0 mm
15:39 99.2 °F /  37.3 °C 69.9 °F /  21.1 °C 29.79 in /  1008.7 hPa SW 3.6 mph /  5.8 km/h 4.6 mph /  7.4 km/h 39 % 0.00 in /  0 mm
15:44 99.4 °F /  37.4 °C 70.1 °F /  21.2 °C 29.79 in /  1008.7 hPa West 3.8 mph /  6.1 km/h 5.0 mph /  8 km/h 39 % 0.00 in /  0 mm
15:49 99.5 °F /  37.5 °C 68.6 °F /  20.3 °C 29.78 in /  1008.4 hPa West 3.3 mph /  5.3 km/h 4.6 mph /  7.4 km/h 37 % 0.00 in /  0 mm
15:55 99.6 °F /  37.6 °C 68.7 °F /  20.4 °C 29.78 in /  1008.4 hPa West 3.1 mph /  5 km/h 6.9 mph /  11.1 km/h 37 % 0.00 in /  0 mm
16:00 99.8 °F /  37.7 °C 70.4 °F /  21.3 °C 29.78 in /  1008.4 hPa WSW 2.6 mph /  4.2 km/h 3.5 mph /  5.6 km/h 39 % 0.00 in /  0 mm
16:05 99.8 °F /  37.7 °C 71.2 °F /  21.8 °C 29.78 in /  1008.4 hPa WSW 0.6 mph /  1 km/h 5.8 mph /  9.3 km/h 40 % 0.00 in /  0 mm
16:10 99.6 °F /  37.6 °C 69.5 °F /  20.8 °C 29.78 in /  1008.4 hPa West 2.0 mph /  3.2 km/h 5.8 mph /  9.3 km/h 38 % 0.00 in /  0 mm
16:15 99.7 °F /  37.6 °C 68.8 °F /  20.4 °C 29.78 in /  1008.4 hPa SSW 4.6 mph /  7.4 km/h 6.9 mph /  11.1 km/h 37 % 0.00 in /  0 mm
16:20 99.8 °F /  37.7 °C 69.7 °F /  20.9 °C 29.78 in /  1008.4 hPa WSW 3.8 mph /  6.1 km/h 6.9 mph /  11.1 km/h 38 % 0.00 in /  0 mm
16:25 99.8 °F /  37.7 °C 68.9 °F /  20.5 °C 29.78 in /  1008.4 hPa WSW 3.6 mph /  5.8 km/h 5.8 mph /  9.3 km/h 37 % 0.00 in /  0 mm
16:30 100.0 °F /  37.8 °C 68.3 °F /  20.2 °C 29.78 in /  1008.4 hPa SW 6.2 mph /  10 km/h 7.0 mph /  11.3 km/h 36 % 0.00 in /  0 mm
16:35 100.0 °F /  37.8 °C 69.1 °F /  20.6 °C 29.78 in /  1008.4 hPa West 4.1 mph /  6.6 km/h 6.9 mph /  11.1 km/h 37 % 0.00 in /  0 mm
16:40 99.9 °F /  37.7 °C 69.0 °F /  20.6 °C 29.77 in /  1008 hPa SW 2.1 mph /  3.4 km/h 4.6 mph /  7.4 km/h 37 % 0.00 in /  0 mm
16:45 99.8 °F /  37.7 °C 68.9 °F /  20.5 °C 29.77 in /  1008 hPa SW 1.6 mph /  2.6 km/h 4.0 mph /  6.4 km/h 37 % 0.00 in /  0 mm
16:50 99.8 °F /  37.7 °C 68.9 °F /  20.5 °C 29.77 in /  1008 hPa West 2.1 mph /  3.4 km/h 3.5 mph /  5.6 km/h 37 % 0.00 in /  0 mm
16:51 99.8 °F /  37.7 °C 69.7 °F /  20.9 °C 29.77 in /  1008 hPa WNW 2.3 mph /  3.7 km/h 4.6 mph /  7.4 km/h 38 % 0.00 in /  0 mm
16:56 99.7 °F /  37.6 °C 68.8 °F /  20.4 °C 29.77 in /  1008 hPa SW 4.0 mph /  6.4 km/h 6.0 mph /  9.7 km/h 37 % 0.00 in /  0 mm
17:01 99.6 °F /  37.6 °C 70.2 °F /  21.2 °C 29.77 in /  1008 hPa WSW 2.0 mph /  3.2 km/h 7.0 mph /  11.3 km/h 39 % 0.00 in /  0 mm
17:03 99.5 °F /  37.5 °C 70.2 °F /  21.2 °C 29.77 in /  1008 hPa SW 3.8 mph /  6.1 km/h 8.1 mph /  13 km/h 39 % 0.00 in /  0 mm
17:08 99.1 °F /  37.3 °C 70.5 °F /  21.4 °C 29.76 in /  1007.7 hPa South 0.5 mph /  0.8 km/h 3.5 mph /  5.6 km/h 40 % 0.00 in /  0 mm
17:13 98.7 °F /  37.1 °C 70.2 °F /  21.2 °C 29.77 in /  1008 hPa SSW 3.8 mph /  6.1 km/h 5.8 mph /  9.3 km/h 40 % 0.00 in /  0 mm
17:19 98.3 °F /  36.8 °C 70.6 °F /  21.4 °C 29.76 in /  1007.7 hPa ESE 0.7 mph /  1.1 km/h 3.5 mph /  5.6 km/h 41 % 0.00 in /  0 mm
17:24 97.8 °F /  36.6 °C 70.8 °F /  21.6 °C 29.76 in /  1007.7 hPa SSW 1.7 mph /  2.7 km/h 4.6 mph /  7.4 km/h 42 % 0.00 in /  0 mm
17:29 97.4 °F /  36.3 °C 71.2 °F /  21.8 °C 29.76 in /  1007.7 hPa SE 0.9 mph /  1.4 km/h 3.5 mph /  5.6 km/h 43 % 0.00 in /  0 mm
17:34 97.0 °F /  36.1 °C 70.8 °F /  21.6 °C 29.75 in /  1007.3 hPa SSE 0.7 mph /  1.1 km/h 3.5 mph /  5.6 km/h 43 % 0.00 in /  0 mm
17:39 96.6 °F /  35.9 °C 70.4 °F /  21.3 °C 29.75 in /  1007.3 hPa South 1.5 mph /  2.4 km/h 4.6 mph /  7.4 km/h 43 % 0.00 in /  0 mm
17:44 96.1 °F /  35.6 °C 70.7 °F /  21.5 °C 29.75 in /  1007.3 hPa South 2.8 mph /  4.5 km/h 6.9 mph /  11.1 km/h 44 % 0.00 in /  0 mm
17:49 95.5 °F /  35.3 °C 70.1 °F /  21.2 °C 29.76 in /  1007.7 hPa SW 2.1 mph /  3.4 km/h 10.4 mph /  16.7 km/h 44 % 0.00 in /  0 mm
17:54 95.0 °F /  35 °C 70.3 °F /  21.3 °C 29.75 in /  1007.3 hPa SW 1.6 mph /  2.6 km/h 4.6 mph /  7.4 km/h 45 % 0.00 in /  0 mm
17:59 94.6 °F /  34.8 °C 70.6 °F /  21.4 °C 29.75 in /  1007.3 hPa South 0.3 mph /  0.5 km/h 1.2 mph /  1.9 km/h 46 % 0.00 in /  0 mm
18:04 94.3 °F /  34.6 °C 71.0 °F /  21.7 °C 29.75 in /  1007.3 hPa SSW 0.4 mph /  0.6 km/h 2.3 mph /  3.7 km/h 47 % 0.00 in /  0 mm
18:09 93.9 °F /  34.4 °C 70.6 °F /  21.4 °C 29.76 in /  1007.7 hPa Calm   1.2 mph /  1.9 km/h 47 % 0.00 in /  0 mm
18:14 93.5 °F /  34.2 °C 70.9 °F /  21.6 °C 29.76 in /  1007.7 hPa SW 0.2 mph /  0.3 km/h 1.2 mph /  1.9 km/h 48 % 0.00 in /  0 mm
18:19 93.2 °F /  34 °C 70.6 °F /  21.4 °C 29.77 in /  1008 hPa SE 0.1 mph /  0.2 km/h 1.2 mph /  1.9 km/h 48 % 0.00 in /  0 mm
18:24 92.8 °F /  33.8 °C 70.8 °F /  21.6 °C 29.76 in /  1007.7 hPa Calm   1.2 mph /  1.9 km/h 49 % 0.00 in /  0 mm
18:29 92.5 °F /  33.6 °C 71.2 °F /  21.8 °C 29.76 in /  1007.7 hPa South 0.1 mph /  0.2 km/h 2.3 mph /  3.7 km/h 50 % 0.00 in /  0 mm
18:34 92.2 °F /  33.4 °C 70.9 °F /  21.6 °C 29.76 in /  1007.7 hPa South 0.2 mph /  0.3 km/h 2.3 mph /  3.7 km/h 50 % 0.00 in /  0 mm
18:39 91.9 °F /  33.3 °C 71.2 °F /  21.8 °C 29.76 in /  1007.7 hPa SW 0.8 mph /  1.3 km/h 3.5 mph /  5.6 km/h 51 % 0.00 in /  0 mm
18:44 91.6 °F /  33.1 °C 70.9 °F /  21.6 °C 29.76 in /  1007.7 hPa SSW 0.3 mph /  0.5 km/h 1.2 mph /  1.9 km/h 51 % 0.00 in /  0 mm
18:45 91.5 °F /  33.1 °C 70.2 °F /  21.2 °C 29.76 in /  1007.7 hPa SSW 1.5 mph /  2.4 km/h 3.5 mph /  5.6 km/h 50 % 0.00 in /  0 mm
18:50 91.2 °F /  32.9 °C 70.5 °F /  21.4 °C 29.76 in /  1007.7 hPa SSW 0.8 mph /  1.3 km/h 2.3 mph /  3.7 km/h 51 % 0.00 in /  0 mm
18:55 91.0 °F /  32.8 °C 70.9 °F /  21.6 °C 29.77 in /  1008 hPa SW 1.3 mph /  2.1 km/h 3.5 mph /  5.6 km/h 52 % 0.00 in /  0 mm
19:00 90.7 °F /  32.6 °C 70.7 °F /  21.5 °C 29.77 in /  1008 hPa SW 0.2 mph /  0.3 km/h 1.2 mph /  1.9 km/h 52 % 0.00 in /  0 mm
19:01 90.6 °F /  32.6 °C 70.6 °F /  21.4 °C 29.77 in /  1008 hPa SW 0.6 mph /  1 km/h 2.3 mph /  3.7 km/h 52 % 0.00 in /  0 mm
19:06 90.3 °F /  32.4 °C 70.3 °F /  21.3 °C 29.77 in /  1008 hPa SW 0.1 mph /  0.2 km/h 1.2 mph /  1.9 km/h 52 % 0.00 in /  0 mm
19:11 90.0 °F /  32.2 °C 70.6 °F /  21.4 °C 29.77 in /  1008 hPa SW 0.7 mph /  1.1 km/h 2.3 mph /  3.7 km/h 53 % 0.00 in /  0 mm
19:16 89.7 °F /  32.1 °C 70.8 °F /  21.6 °C 29.77 in /  1008 hPa SW 0.5 mph /  0.8 km/h 2.3 mph /  3.7 km/h 54 % 0.00 in /  0 mm
19:21 89.5 °F /  31.9 °C 70.1 °F /  21.2 °C 29.77 in /  1008 hPa SW 0.2 mph /  0.3 km/h 1.2 mph /  1.9 km/h 53 % 0.00 in /  0 mm
19:26 89.2 °F /  31.8 °C 70.4 °F /  21.3 °C 29.77 in /  1008 hPa SW 0.8 mph /  1.3 km/h 2.3 mph /  3.7 km/h 54 % 0.00 in /  0 mm
19:31 88.9 °F /  31.6 °C 70.1 °F /  21.2 °C 29.77 in /  1008 hPa SW 0.7 mph /  1.1 km/h 2.3 mph /  3.7 km/h 54 % 0.00 in /  0 mm
19:36 88.6 °F /  31.4 °C 70.4 °F /  21.3 °C 29.77 in /  1008 hPa Calm     55 % 0.00 in /  0 mm
19:41 88.3 °F /  31.3 °C 70.1 °F /  21.2 °C 29.77 in /  1008 hPa SW 0.1 mph /  0.2 km/h 1.2 mph /  1.9 km/h 55 % 0.00 in /  0 mm
19:47 88.0 °F /  31.1 °C 70.3 °F /  21.3 °C 29.78 in /  1008.4 hPa North 2.6 mph /  4.2 km/h 5.8 mph /  9.3 km/h 56 % 0.00 in /  0 mm
19:52 87.4 °F /  30.8 °C 69.8 °F /  21 °C 29.78 in /  1008.4 hPa North 0.4 mph /  0.6 km/h 3.5 mph /  5.6 km/h 56 % 0.00 in /  0 mm
19:57 87.0 °F /  30.6 °C 69.4 °F /  20.8 °C 29.78 in /  1008.4 hPa WSW 0.1 mph /  0.2 km/h 2.3 mph /  3.7 km/h 56 % 0.00 in /  0 mm
20:02 86.7 °F /  30.4 °C 69.6 °F /  20.9 °C 29.79 in /  1008.7 hPa Calm   1.0 mph /  1.6 km/h 57 % 0.00 in /  0 mm
20:07 86.3 °F /  30.2 °C 69.3 °F /  20.7 °C 29.78 in /  1008.4 hPa NNW 0.2 mph /  0.3 km/h 1.2 mph /  1.9 km/h 57 % 0.00 in /  0 mm
20:12 86.0 °F /  30 °C 69.5 °F /  20.8 °C 29.80 in /  1009 hPa NW 1.1 mph /  1.8 km/h 3.5 mph /  5.6 km/h 58 % 0.00 in /  0 mm
20:17 85.6 °F /  29.8 °C 69.1 °F /  20.6 °C 29.80 in /  1009 hPa North 3.1 mph /  5 km/h 6.0 mph /  9.7 km/h 58 % 0.00 in /  0 mm
20:22 85.2 °F /  29.6 °C 69.7 °F /  20.9 °C 29.80 in /  1009 hPa NE 0.1 mph /  0.2 km/h 2.3 mph /  3.7 km/h 60 % 0.00 in /  0 mm
20:27 84.9 °F /  29.4 °C 69.9 °F /  21.1 °C 29.79 in /  1008.7 hPa NE 0.1 mph /  0.2 km/h 1.2 mph /  1.9 km/h 61 % 0.00 in /  0 mm
20:32 84.7 °F /  29.3 °C 70.2 °F /  21.2 °C 29.79 in /  1008.7 hPa Calm     62 % 0.00 in /  0 mm
20:37 84.5 °F /  29.2 °C 70.0 °F /  21.1 °C 29.79 in /  1008.7 hPa Calm     62 % 0.00 in /  0 mm
20:42 84.2 °F /  29 °C 69.8 °F /  21 °C 29.79 in /  1008.7 hPa Calm     62 % 0.00 in /  0 mm
20:47 84.0 °F /  28.9 °C 70.0 °F /  21.1 °C 29.80 in /  1009 hPa Calm     63 % 0.00 in /  0 mm
20:52 83.8 °F /  28.8 °C 70.3 °F /  21.3 °C 29.80 in /  1009 hPa Calm     64 % 0.00 in /  0 mm
20:57 83.6 °F /  28.7 °C 70.1 °F /  21.2 °C 29.80 in /  1009 hPa Calm     64 % 0.00 in /  0 mm
21:02 83.4 °F /  28.6 °C 70.4 °F /  21.3 °C 29.80 in /  1009 hPa Calm     65 % 0.00 in /  0 mm
21:07 83.1 °F /  28.4 °C 70.1 °F /  21.2 °C 29.80 in /  1009 hPa Calm     65 % 0.00 in /  0 mm
21:13 83.0 °F /  28.3 °C 70.5 °F /  21.4 °C 29.81 in /  1009.4 hPa Calm     66 % 0.00 in /  0 mm
21:18 82.8 °F /  28.2 °C 70.3 °F /  21.3 °C 29.81 in /  1009.4 hPa Calm     66 % 0.00 in /  0 mm
21:23 82.7 °F /  28.2 °C 70.2 °F /  21.2 °C 29.82 in /  1009.7 hPa Calm     66 % 0.00 in /  0 mm
21:28 82.5 °F /  28.1 °C 70.4 °F /  21.3 °C 29.82 in /  1009.7 hPa NE 0.5 mph /  0.8 km/h 2.3 mph /  3.7 km/h 67 % 0.00 in /  0 mm
21:33 82.4 °F /  28 °C 70.8 °F /  21.6 °C 29.83 in /  1010 hPa Calm     68 % 0.00 in /  0 mm
21:38 82.3 °F /  27.9 °C 70.7 °F /  21.5 °C 29.83 in /  1010 hPa NW 2.1 mph /  3.4 km/h 3.5 mph /  5.6 km/h 68 % 0.00 in /  0 mm
21:43 82.1 °F /  27.8 °C 70.9 °F /  21.6 °C 29.83 in /  1010 hPa Calm     69 % 0.00 in /  0 mm
21:48 82.0 °F /  27.8 °C 70.4 °F /  21.3 °C 29.83 in /  1010 hPa Calm     68 % 0.00 in /  0 mm
21:53 81.9 °F /  27.7 °C 70.7 °F /  21.5 °C 29.83 in /  1010 hPa Calm     69 % 0.00 in /  0 mm
21:58 81.8 °F /  27.7 °C 71.1 °F /  21.7 °C 29.83 in /  1010 hPa Calm     70 % 0.00 in /  0 mm
22:03 81.6 °F /  27.6 °C 71.3 °F /  21.8 °C 29.83 in /  1010 hPa Calm     71 % 0.00 in /  0 mm
22:08 81.5 °F /  27.5 °C 71.2 °F /  21.8 °C 29.83 in /  1010 hPa Calm     71 % 0.00 in /  0 mm
22:13 81.2 °F /  27.3 °C 71.3 °F /  21.8 °C 29.83 in /  1010 hPa Calm     72 % 0.00 in /  0 mm
22:18 81.0 °F /  27.2 °C 71.1 °F /  21.7 °C 29.83 in /  1010 hPa Calm     72 % 0.00 in /  0 mm
22:23 80.7 °F /  27.1 °C 70.8 °F /  21.6 °C 29.83 in /  1010 hPa Calm     72 % 0.00 in /  0 mm
22:28 80.5 °F /  26.9 °C 71.0 °F /  21.7 °C 29.83 in /  1010 hPa Calm     73 % 0.00 in /  0 mm
22:33 80.3 °F /  26.8 °C 70.9 °F /  21.6 °C 29.83 in /  1010 hPa Calm     73 % 0.00 in /  0 mm
22:38 80.0 °F /  26.7 °C 71.0 °F /  21.7 °C 29.82 in /  1009.7 hPa Calm     74 % 0.00 in /  0 mm
22:43 79.8 °F /  26.6 °C 70.8 °F /  21.6 °C 29.82 in /  1009.7 hPa Calm     74 % 0.00 in /  0 mm
22:48 79.6 °F /  26.4 °C 71.0 °F /  21.7 °C 29.82 in /  1009.7 hPa Calm   1.2 mph /  1.9 km/h 75 % 0.00 in /  0 mm
22:54 79.3 °F /  26.3 °C 70.7 °F /  21.5 °C 29.82 in /  1009.7 hPa Calm   1.2 mph /  1.9 km/h 75 % 0.00 in /  0 mm
22:59 79.1 °F /  26.2 °C 70.9 °F /  21.6 °C 29.82 in /  1009.7 hPa Calm     76 % 0.00 in /  0 mm
23:04 78.9 °F /  26.1 °C 70.7 °F /  21.5 °C 29.82 in /  1009.7 hPa Calm     76 % 0.00 in /  0 mm
23:09 78.7 °F /  25.9 °C 70.5 °F /  21.4 °C 29.82 in /  1009.7 hPa Calm     76 % 0.00 in /  0 mm
23:14 78.6 °F /  25.9 °C 70.8 °F /  21.6 °C 29.82 in /  1009.7 hPa Calm     77 % 0.00 in /  0 mm
23:19 78.4 °F /  25.8 °C 70.6 °F /  21.4 °C 29.82 in /  1009.7 hPa Calm     77 % 0.00 in /  0 mm
23:24 78.2 °F /  25.7 °C 70.8 °F /  21.6 °C 29.82 in /  1009.7 hPa Calm     78 % 0.00 in /  0 mm
23:29 78.0 °F /  25.6 °C 70.6 °F /  21.4 °C 29.82 in /  1009.7 hPa Calm     78 % 0.00 in /  0 mm
23:34 77.8 °F /  25.4 °C 70.4 °F /  21.3 °C 29.83 in /  1010 hPa Calm     78 % 0.00 in /  0 mm
23:39 77.7 °F /  25.4 °C 70.3 °F /  21.3 °C 29.83 in /  1010 hPa Calm     78 % 0.00 in /  0 mm
23:44 77.6 °F /  25.3 °C 70.2 °F /  21.2 °C 29.83 in /  1010 hPa Calm   1.2 mph /  1.9 km/h 78 % 0.00 in /  0 mm
23:49 77.4 °F /  25.2 °C 70.0 °F /  21.1 °C 29.83 in /  1010 hPa Calm     78 % 0.00 in /  0 mm
23:54 77.3 °F /  25.2 °C 69.9 °F /  21.1 °C 29.83 in /  1010 hPa Calm     78 % 0.00 in /  0 mm
Crab Meadow Weather
Compliments of Weather Underground - 3 mb

Script developed by  Jim McMurry - jmcmurry@mwt.net Adapted for the template by  Wim van der Kuil - Leuven-Template.eu

Extremes: By average annual rainfall, the wettest place in the world is Mawslynram, in Meghalaya State, India with 467 1/2 inches per annum.